createdAt,value
2022-12-25T00:01:56.545Z,6.40
2022-12-25T00:04:24.477Z,6.30
2022-12-25T00:07:00.556Z,6.30
2022-12-25T00:09:35.391Z,6.30
2022-12-25T00:12:03.224Z,6.40
2022-12-25T00:14:33.128Z,6.30
2022-12-25T00:17:00.263Z,6.30
2022-12-25T00:19:27.305Z,6.30
2022-12-25T00:21:58.758Z,6.30
2022-12-25T00:24:36.801Z,6.30
2022-12-25T00:27:04.045Z,6.20
2022-12-25T00:29:39.644Z,6.30
2022-12-25T00:32:10.227Z,6.30
2022-12-25T00:34:43.752Z,6.30
2022-12-25T00:37:13.295Z,6.30
2022-12-25T00:39:42.092Z,6.20
2022-12-25T00:42:19.594Z,6.30
2022-12-25T00:44:51.219Z,6.30
2022-12-25T00:47:22.224Z,6.30
2022-12-25T00:49:49.476Z,6.30
2022-12-25T00:52:16.619Z,6.30
2022-12-25T00:54:43.812Z,6.30
2022-12-25T00:57:11.168Z,6.20
2022-12-25T00:59:41.275Z,6.30
2022-12-25T01:02:23.857Z,6.30
2022-12-25T01:04:54.816Z,6.40
2022-12-25T01:07:24.146Z,6.30
2022-12-25T01:10:15.948Z,6.30
2022-12-25T01:12:46.649Z,6.30
2022-12-25T01:15:14.070Z,6.40
2022-12-25T01:17:42.580Z,6.50
2022-12-25T01:20:11.277Z,6.50
2022-12-25T01:22:38.499Z,6.50
2022-12-25T01:25:06.798Z,6.40
2022-12-25T01:27:36.833Z,6.30
2022-12-25T01:30:04.883Z,6.30
2022-12-25T01:32:35.086Z,6.40
2022-12-25T01:35:02.275Z,6.50
2022-12-25T01:37:29.443Z,6.50
2022-12-25T01:39:56.648Z,6.50
2022-12-25T01:42:24.241Z,6.60
2022-12-25T01:44:51.347Z,6.60
2022-12-25T01:47:19.040Z,6.60
2022-12-25T01:49:50.087Z,6.50
2022-12-25T01:52:24.734Z,6.60
2022-12-25T01:55:04.115Z,6.50
2022-12-25T01:57:33.973Z,6.50
2022-12-25T02:00:02.031Z,6.50
2022-12-25T02:02:30.230Z,6.50
2022-12-25T02:05:12.599Z,6.50
2022-12-25T02:07:43.159Z,6.50
2022-12-25T02:10:11.107Z,6.50
2022-12-25T02:12:38.735Z,6.60
2022-12-25T02:15:16.379Z,6.60
2022-12-25T02:17:55.585Z,6.70
2022-12-25T02:20:41.704Z,6.60
2022-12-25T02:23:26.822Z,6.70
2022-12-25T02:26:24.001Z,6.70
2022-12-25T02:29:01.240Z,6.70
2022-12-25T02:31:49.008Z,6.70
2022-12-25T02:34:22.002Z,6.70
2022-12-25T02:37:02.811Z,6.60
2022-12-25T02:40:22.587Z,6.60
2022-12-25T02:43:14.745Z,6.60
2022-12-25T02:46:20.794Z,6.70
2022-12-25T02:49:24.375Z,6.70
2022-12-25T02:52:18.294Z,6.70
2022-12-25T02:55:09.429Z,6.70
2022-12-25T02:58:02.457Z,6.70
2022-12-25T03:00:53.830Z,6.70
2022-12-25T03:03:43.463Z,6.70
2022-12-25T03:06:30.906Z,6.60
2022-12-25T03:09:20.109Z,6.60
2022-12-25T03:11:55.248Z,6.60
2022-12-25T03:14:40.758Z,6.60
2022-12-25T03:17:08.470Z,6.60
2022-12-25T03:19:54.324Z,6.60
2022-12-25T03:22:51.264Z,6.50
2022-12-25T03:25:38.474Z,6.50
2022-12-25T03:28:06.525Z,6.40
2022-12-25T03:31:13.722Z,6.30
2022-12-25T03:34:27.992Z,6.40
2022-12-25T03:37:41.994Z,6.30
2022-12-25T03:40:40.063Z,6.30
2022-12-25T03:43:34.645Z,6.30
2022-12-25T03:46:26.057Z,6.20
2022-12-25T03:49:22.795Z,6.20
2022-12-25T03:52:10.813Z,6.10
2022-12-25T03:55:00.118Z,5.90
2022-12-25T03:57:45.974Z,6.00
2022-12-25T04:00:32.572Z,6.00
2022-12-25T04:03:21.523Z,6.00
2022-12-25T04:06:07.364Z,6.10
2022-12-25T04:08:52.988Z,6.10
2022-12-25T04:11:38.719Z,6.00
2022-12-25T04:14:24.562Z,6.10
2022-12-25T04:17:10.319Z,5.90
2022-12-25T04:19:59.384Z,5.80
2022-12-25T04:22:47.969Z,5.80
2022-12-25T04:25:33.706Z,5.80
2022-12-25T04:28:21.146Z,5.80
2022-12-25T04:31:09.192Z,5.80
2022-12-25T04:34:08.282Z,5.80
2022-12-25T04:36:35.611Z,5.80
2022-12-25T04:39:03.001Z,5.80
2022-12-25T04:41:30.307Z,5.70
2022-12-25T04:43:57.554Z,5.50
2022-12-25T04:46:24.846Z,5.50
2022-12-25T04:48:52.116Z,5.50
2022-12-25T04:51:25.434Z,5.50
2022-12-25T04:53:53.930Z,5.50
2022-12-25T04:56:21.561Z,5.50
2022-12-25T04:58:49.633Z,5.50
2022-12-25T05:01:17.469Z,5.50
2022-12-25T05:03:52.293Z,5.40
2022-12-25T05:06:19.652Z,5.40
2022-12-25T05:08:47.139Z,5.40
2022-12-25T05:11:16.370Z,5.50
2022-12-25T05:13:44.053Z,5.60
2022-12-25T05:16:18.021Z,5.50
2022-12-25T05:18:52.342Z,5.50
2022-12-25T05:21:20.239Z,5.50
2022-12-25T05:23:51.525Z,5.50
2022-12-25T05:26:23.229Z,5.50
2022-12-25T05:28:50.801Z,5.50
2022-12-25T05:31:18.825Z,5.60
2022-12-25T05:33:46.257Z,5.60
2022-12-25T05:36:14.505Z,5.50
2022-12-25T05:38:45.007Z,5.50
2022-12-25T05:41:14.993Z,5.50
2022-12-25T05:43:42.416Z,5.50
2022-12-25T05:46:13.126Z,5.50
2022-12-25T05:48:40.740Z,5.50
2022-12-25T05:51:12.463Z,5.50
2022-12-25T05:53:41.793Z,5.50
2022-12-25T05:56:10.133Z,5.50
2022-12-25T05:58:39.277Z,5.60
2022-12-25T06:01:16.282Z,5.70
2022-12-25T06:03:44.041Z,5.60
2022-12-25T06:06:11.989Z,5.60
2022-12-25T06:08:39.425Z,5.60
2022-12-25T06:11:11.639Z,5.60
2022-12-25T06:13:38.863Z,5.60
2022-12-25T06:16:08.001Z,5.70
2022-12-25T06:18:39.760Z,5.70
2022-12-25T06:21:13.953Z,5.70
2022-12-25T06:23:42.520Z,5.60
2022-12-25T06:26:17.725Z,5.60
2022-12-25T06:28:46.002Z,5.60
2022-12-25T06:31:17.324Z,5.60
2022-12-25T06:33:45.097Z,5.60
2022-12-25T06:36:19.486Z,5.70
2022-12-25T06:38:47.116Z,5.70
2022-12-25T06:41:23.097Z,5.60
2022-12-25T06:43:56.049Z,5.70
2022-12-25T06:46:26.040Z,5.80
2022-12-25T06:48:57.577Z,5.90
2022-12-25T06:51:27.988Z,5.90
2022-12-25T06:53:55.923Z,6.00
2022-12-25T06:56:26.011Z,5.90
2022-12-25T06:58:55.658Z,5.90
2022-12-25T07:01:34.062Z,6.00
2022-12-25T07:04:07.746Z,6.00
2022-12-25T07:06:34.890Z,6.00
2022-12-25T07:09:04.829Z,6.00
2022-12-25T07:11:34.607Z,6.10
2022-12-25T07:14:04.375Z,6.00
2022-12-25T07:16:31.550Z,6.00
2022-12-25T07:19:01.783Z,6.00
2022-12-25T07:21:28.914Z,6.00
2022-12-25T07:23:56.117Z,6.00
2022-12-25T07:26:23.253Z,6.00
2022-12-25T07:28:50.556Z,6.10
2022-12-25T07:31:19.132Z,6.20
2022-12-25T07:33:46.645Z,6.20
2022-12-25T07:36:15.731Z,6.30
2022-12-25T07:38:43.601Z,6.30
2022-12-25T07:41:12.971Z,6.30
2022-12-25T07:43:43.302Z,6.30
2022-12-25T07:46:11.220Z,6.40
2022-12-25T07:48:42.766Z,6.60
2022-12-25T07:51:12.852Z,6.80
2022-12-25T07:53:41.143Z,6.80
2022-12-25T07:56:12.714Z,6.70
2022-12-25T07:58:40.470Z,6.80
2022-12-25T08:01:22.856Z,7.00
2022-12-25T08:03:52.325Z,7.00
2022-12-25T08:06:20.712Z,7.10
2022-12-25T08:08:48.323Z,7.30
2022-12-25T08:11:21.479Z,7.50
2022-12-25T08:13:48.936Z,7.50
2022-12-25T08:16:16.831Z,7.60
2022-12-25T08:18:44.499Z,7.90
2022-12-25T08:21:14.395Z,8.10
2022-12-25T08:23:46.123Z,8.00
2022-12-25T08:26:20.288Z,8.10
2022-12-25T08:28:49.012Z,8.10
2022-12-25T08:31:21.095Z,8.10
2022-12-25T08:33:49.981Z,8.20
2022-12-25T08:36:18.256Z,8.10
2022-12-25T08:38:46.087Z,8.20
2022-12-25T08:41:14.497Z,8.20
2022-12-25T08:43:46.001Z,8.30
2022-12-25T08:46:14.139Z,8.40
2022-12-25T08:48:49.163Z,8.40
2022-12-25T08:51:21.539Z,8.50
2022-12-25T08:53:50.239Z,8.50
2022-12-25T08:56:18.543Z,8.60
2022-12-25T08:58:48.473Z,8.70
2022-12-25T09:01:15.795Z,8.70
2022-12-25T09:03:43.869Z,8.90
2022-12-25T09:06:14.947Z,9.40
2022-12-25T09:08:49.670Z,10.20
2022-12-25T09:11:19.576Z,10.40
2022-12-25T09:13:47.473Z,10.10
2022-12-25T09:16:21.627Z,10.00
2022-12-25T09:18:51.751Z,9.80
2022-12-25T09:21:19.296Z,9.80
2022-12-25T09:23:47.082Z,9.80
2022-12-25T09:26:18.738Z,9.80
2022-12-25T09:28:51.234Z,9.90
2022-12-25T09:31:22.292Z,10.00
2022-12-25T09:33:50.819Z,10.10
2022-12-25T09:36:18.124Z,10.20
2022-12-25T09:38:45.332Z,10.30
2022-12-25T09:41:29.801Z,10.40
2022-12-25T09:44:09.236Z,10.50
2022-12-25T09:46:50.059Z,10.70
2022-12-25T09:49:38.551Z,10.70
2022-12-25T09:52:11.984Z,10.80
2022-12-25T09:54:44.824Z,11.00
2022-12-25T09:57:14.258Z,11.10
2022-12-25T09:59:44.923Z,11.10
2022-12-25T10:02:12.190Z,11.20
2022-12-25T10:04:50.904Z,11.30
2022-12-25T10:07:42.231Z,11.40
2022-12-25T10:10:45.082Z,11.60
2022-12-25T10:13:45.022Z,11.90
2022-12-25T10:16:29.486Z,12.20
2022-12-25T10:19:08.672Z,12.20
2022-12-25T10:21:36.584Z,12.50
2022-12-25T10:24:35.564Z,12.70
2022-12-25T10:27:12.887Z,13.00
2022-12-25T10:29:41.268Z,13.10
2022-12-25T10:32:11.458Z,13.20
2022-12-25T10:34:41.885Z,13.40
2022-12-25T10:37:13.523Z,13.50
2022-12-25T10:39:46.034Z,13.60
2022-12-25T10:42:44.563Z,13.70
2022-12-25T10:45:19.910Z,13.90
2022-12-25T10:47:52.986Z,14.20
2022-12-25T10:50:26.952Z,14.30
2022-12-25T10:53:09.902Z,14.30
2022-12-25T10:55:37.169Z,14.60
2022-12-25T10:58:06.517Z,14.90
2022-12-25T11:00:37.154Z,15.20
2022-12-25T11:03:04.785Z,15.40
2022-12-25T11:05:37.259Z,15.70
2022-12-25T11:08:15.992Z,15.90
2022-12-25T11:10:47.438Z,16.00
2022-12-25T11:13:28.291Z,16.10
2022-12-25T11:16:06.801Z,16.10
2022-12-25T11:18:43.692Z,16.10
2022-12-25T11:21:18.701Z,16.00
2022-12-25T11:23:51.371Z,15.70
2022-12-25T11:26:19.140Z,15.90
2022-12-25T11:28:49.119Z,16.00
2022-12-25T11:31:19.919Z,16.00
2022-12-25T11:33:47.191Z,16.10
2022-12-25T11:36:49.756Z,16.30
2022-12-25T11:39:38.663Z,16.50
2022-12-25T11:42:44.350Z,16.50
2022-12-25T11:45:13.892Z,16.70
2022-12-25T11:47:53.590Z,16.60
2022-12-25T11:50:37.176Z,16.70
2022-12-25T11:53:22.699Z,16.70
2022-12-25T11:55:57.526Z,16.80
2022-12-25T11:58:42.080Z,17.00
2022-12-25T12:01:44.582Z,17.00
2022-12-25T12:04:29.457Z,17.00
2022-12-25T12:07:07.299Z,17.20
2022-12-25T12:09:39.696Z,17.30
2022-12-25T12:12:32.194Z,17.50
2022-12-25T12:15:13.799Z,17.70
2022-12-25T12:17:41.014Z,17.80
2022-12-25T12:20:33.703Z,17.80
2022-12-25T12:23:12.741Z,17.60
2022-12-25T12:25:53.545Z,17.90
2022-12-25T12:28:38.481Z,18.30
2022-12-25T12:31:08.340Z,18.30
2022-12-25T12:33:43.303Z,18.30
2022-12-25T12:36:17.390Z,18.40
2022-12-25T12:38:45.024Z,18.60
2022-12-25T12:41:18.504Z,18.70
2022-12-25T12:43:59.304Z,18.80
2022-12-25T12:46:35.556Z,18.80
2022-12-25T12:49:30.589Z,18.50
2022-12-25T12:52:38.935Z,18.50
2022-12-25T12:55:15.087Z,18.90
2022-12-25T12:57:43.304Z,19.20
2022-12-25T13:00:20.803Z,19.40
2022-12-25T13:03:30.956Z,19.70
2022-12-25T13:06:46.829Z,20.00
2022-12-25T13:09:51.946Z,20.00
2022-12-25T13:12:24.693Z,20.00
2022-12-25T13:14:52.067Z,19.90
2022-12-25T13:17:23.059Z,20.20
2022-12-25T13:19:57.544Z,20.30
2022-12-25T13:22:36.204Z,20.30
2022-12-25T13:25:20.537Z,20.40
2022-12-25T13:27:57.961Z,20.40
2022-12-25T13:30:26.845Z,20.30
2022-12-25T13:32:55.353Z,20.20
2022-12-25T13:35:29.052Z,20.00
2022-12-25T13:38:01.295Z,20.10
2022-12-25T13:40:29.370Z,20.00
2022-12-25T13:43:01.631Z,19.90
2022-12-25T13:45:33.426Z,19.90
2022-12-25T13:48:19.935Z,20.10
2022-12-25T13:50:58.406Z,19.90
2022-12-25T13:53:28.773Z,19.80
2022-12-25T13:55:58.687Z,19.80
2022-12-25T13:58:34.026Z,19.80
2022-12-25T14:01:03.237Z,19.80
2022-12-25T14:03:39.967Z,19.80
2022-12-25T14:06:31.197Z,19.90
2022-12-25T14:08:59.927Z,19.90
2022-12-25T14:11:31.363Z,19.70
2022-12-25T14:14:05.974Z,19.70
2022-12-25T14:16:55.281Z,19.70
2022-12-25T14:19:40.225Z,19.50
2022-12-25T14:22:24.632Z,19.00
2022-12-25T14:24:55.711Z,18.70
2022-12-25T14:27:30.713Z,18.50
2022-12-25T14:30:06.287Z,18.40
2022-12-25T14:32:44.276Z,18.00
2022-12-25T14:35:23.143Z,17.40
2022-12-25T14:38:03.626Z,17.10
2022-12-25T14:40:49.426Z,16.70
2022-12-25T14:43:35.230Z,16.40
2022-12-25T14:46:41.585Z,16.10
2022-12-25T14:49:28.247Z,15.90
2022-12-25T14:52:14.914Z,15.80
2022-12-25T14:54:54.643Z,15.70
2022-12-25T14:58:04.927Z,15.50
2022-12-25T15:00:52.607Z,15.20
2022-12-25T15:03:51.899Z,15.10
2022-12-25T15:06:37.275Z,15.10
2022-12-25T15:09:19.649Z,14.90
2022-12-25T15:12:01.212Z,14.90
2022-12-25T15:14:43.967Z,14.80
2022-12-25T15:17:24.661Z,14.80
2022-12-25T15:19:55.424Z,14.70
2022-12-25T15:22:26.306Z,14.60
2022-12-25T15:25:01.696Z,14.40
2022-12-25T15:27:29.937Z,14.20
2022-12-25T15:30:09.724Z,14.00
2022-12-25T15:32:38.173Z,13.90
2022-12-25T15:35:05.977Z,13.90
2022-12-25T15:37:33.207Z,13.90
2022-12-25T15:40:05.612Z,13.90
2022-12-25T15:42:33.904Z,13.70
2022-12-25T15:45:01.033Z,13.60
2022-12-25T15:47:32.732Z,13.50
2022-12-25T15:50:02.736Z,13.40
2022-12-25T15:52:30.065Z,13.40
2022-12-25T15:54:57.265Z,13.40
2022-12-25T15:57:26.359Z,13.40
2022-12-25T15:59:53.487Z,13.40
2022-12-25T16:02:21.576Z,13.40
2022-12-25T16:04:51.209Z,13.50
2022-12-25T16:07:29.605Z,13.30
2022-12-25T16:09:56.739Z,13.00
2022-12-25T16:12:27.233Z,12.90
2022-12-25T16:15:02.823Z,12.80
2022-12-25T16:17:31.134Z,12.50
2022-12-25T16:19:59.996Z,12.20
2022-12-25T16:22:30.885Z,12.20
2022-12-25T16:25:07.740Z,12.30
2022-12-25T16:27:36.453Z,12.50
2022-12-25T16:30:04.607Z,12.60
2022-12-25T16:32:31.860Z,12.60
2022-12-25T16:35:00.372Z,12.70
2022-12-25T16:37:28.039Z,12.70
2022-12-25T16:39:55.392Z,12.70
2022-12-25T16:42:23.317Z,12.60
2022-12-25T16:44:50.931Z,12.60
2022-12-25T16:47:21.448Z,12.50
2022-12-25T16:49:50.539Z,12.50
2022-12-25T16:52:18.165Z,12.50
2022-12-25T16:54:46.828Z,12.30
2022-12-25T16:57:14.665Z,11.80
2022-12-25T16:59:42.046Z,11.60
2022-12-25T17:02:16.404Z,11.80
2022-12-25T17:04:48.494Z,11.90
2022-12-25T17:07:17.532Z,12.00
2022-12-25T17:09:59.986Z,11.90
2022-12-25T17:12:28.509Z,12.00
2022-12-25T17:14:59.235Z,11.90
2022-12-25T17:17:32.770Z,11.90
2022-12-25T17:20:00.190Z,12.00
2022-12-25T17:22:29.658Z,12.00
2022-12-25T17:24:56.808Z,11.90
2022-12-25T17:27:23.913Z,11.50
2022-12-25T17:29:56.647Z,11.40
2022-12-25T17:32:26.949Z,11.40
2022-12-25T17:34:56.999Z,11.30
2022-12-25T17:37:25.276Z,11.20
2022-12-25T17:39:56.129Z,11.30
2022-12-25T17:42:23.676Z,11.30
2022-12-25T17:44:50.953Z,11.40
2022-12-25T17:47:18.432Z,11.30
2022-12-25T17:49:45.542Z,11.30
2022-12-25T17:52:13.186Z,11.30
2022-12-25T17:54:40.982Z,11.20
2022-12-25T17:57:08.288Z,11.00
2022-12-25T17:59:35.673Z,10.90
2022-12-25T18:02:03.327Z,10.90
2022-12-25T18:04:30.939Z,10.90
2022-12-25T18:06:58.202Z,10.90
2022-12-25T18:09:25.466Z,10.80
2022-12-25T18:11:52.603Z,10.80
2022-12-25T18:14:20.138Z,10.80
2022-12-25T18:16:48.053Z,10.60
2022-12-25T18:19:17.753Z,10.60
2022-12-25T18:21:53.076Z,10.50
2022-12-25T18:24:27.139Z,10.50
2022-12-25T18:26:56.619Z,10.60
2022-12-25T18:29:23.982Z,10.60
2022-12-25T18:31:55.848Z,10.60
2022-12-25T18:34:23.526Z,10.50
2022-12-25T18:36:52.597Z,10.50
2022-12-25T18:39:19.856Z,10.50
2022-12-25T18:42:06.415Z,10.60
2022-12-25T18:44:36.640Z,10.60
2022-12-25T18:47:08.325Z,10.40
2022-12-25T18:49:38.589Z,10.10
2022-12-25T18:52:47.612Z,10.10
2022-12-25T18:54:55.405Z,10.00
2022-12-25T18:57:22.801Z,9.90
2022-12-25T18:59:57.338Z,9.90
2022-12-25T19:02:24.692Z,9.90
2022-12-25T19:04:54.540Z,10.10
2022-12-25T19:07:23.226Z,10.10
2022-12-25T19:12:35.549Z,9.90
2022-12-25T19:15:03.151Z,9.90
2022-12-25T19:17:32.143Z,10.00
2022-12-25T19:19:59.779Z,9.90
2022-12-25T19:22:27.336Z,9.80
2022-12-25T19:24:55.185Z,9.80
2022-12-25T19:27:22.683Z,9.80
2022-12-25T19:29:49.886Z,9.80
2022-12-25T19:32:17.372Z,9.90
2022-12-25T19:34:46.517Z,10.00
2022-12-25T19:37:19.372Z,10.00
2022-12-25T19:39:47.003Z,10.10
2022-12-25T19:42:18.973Z,9.90
2022-12-25T19:44:47.476Z,9.80
2022-12-25T19:47:16.895Z,9.80
2022-12-25T19:49:52.560Z,9.90
2022-12-25T19:52:24.609Z,10.00
2022-12-25T19:54:52.947Z,10.10
2022-12-25T19:57:23.124Z,10.20
2022-12-25T19:59:50.305Z,10.00
2022-12-25T20:02:17.669Z,9.90
2022-12-25T20:04:48.674Z,9.70
2022-12-25T20:07:19.509Z,9.70
2022-12-25T20:09:51.197Z,9.70
2022-12-25T20:12:21.227Z,9.70
2022-12-25T20:14:49.551Z,9.50
2022-12-25T20:17:17.081Z,9.50
2022-12-25T20:19:44.272Z,9.40
2022-12-25T20:22:14.767Z,9.20
2022-12-25T20:24:45.868Z,9.20
2022-12-25T20:27:12.956Z,9.10
2022-12-25T20:29:40.655Z,9.10
2022-12-25T20:32:09.153Z,9.00
2022-12-25T20:34:39.122Z,8.90
2022-12-25T20:40:13.998Z,8.90
2022-12-25T20:42:50.295Z,8.90
2022-12-25T20:45:32.730Z,8.90
2022-12-25T20:48:03.821Z,8.90
2022-12-25T20:50:51.684Z,8.80
2022-12-25T20:53:34.096Z,8.60
2022-12-25T20:56:01.888Z,8.70
2022-12-25T20:58:33.253Z,8.80
2022-12-25T21:01:12.851Z,8.70
2022-12-25T21:03:42.298Z,8.60
2022-12-25T21:06:13.401Z,8.50
2022-12-25T21:08:42.545Z,8.40
2022-12-25T21:11:10.617Z,8.50
2022-12-25T21:13:41.056Z,8.40
2022-12-25T21:16:11.723Z,8.40
2022-12-25T21:18:39.724Z,8.40
2022-12-25T21:21:07.995Z,8.20
2022-12-25T21:23:40.714Z,8.30
2022-12-25T21:26:20.845Z,8.30
2022-12-25T21:28:49.886Z,8.30
2022-12-25T21:31:18.812Z,8.60
2022-12-25T21:33:52.215Z,8.50
2022-12-25T21:36:28.321Z,8.30
2022-12-25T21:39:12.015Z,8.30
2022-12-25T21:41:42.410Z,8.30
2022-12-25T21:44:11.498Z,8.10
2022-12-25T21:46:38.916Z,8.30
2022-12-25T21:49:06.464Z,8.20
2022-12-25T21:51:53.085Z,8.20
2022-12-25T21:54:23.790Z,8.10
2022-12-25T21:56:53.858Z,8.10
2022-12-25T21:59:22.773Z,8.20
2022-12-25T22:01:51.803Z,8.20
2022-12-25T22:04:22.016Z,8.20
2022-12-25T22:07:08.228Z,8.20
2022-12-25T22:09:35.782Z,8.10
2022-12-25T22:12:22.523Z,7.90
2022-12-25T22:14:56.611Z,8.00
2022-12-25T22:17:49.203Z,8.00
2022-12-25T22:20:26.373Z,8.10
2022-12-25T22:22:54.769Z,8.10
2022-12-25T22:25:22.451Z,8.00
2022-12-25T22:27:50.122Z,7.80
2022-12-25T22:30:20.537Z,7.70
2022-12-25T22:32:48.457Z,7.70
2022-12-25T22:35:20.054Z,7.80
2022-12-25T22:37:48.486Z,7.70
2022-12-25T22:40:24.000Z,7.80
2022-12-25T22:42:57.470Z,7.80
2022-12-25T22:45:27.753Z,7.70
2022-12-25T22:47:55.286Z,7.50
2022-12-25T22:50:23.313Z,7.40
2022-12-25T22:52:50.927Z,7.30
2022-12-25T22:55:20.569Z,7.40
2022-12-25T22:57:52.256Z,7.50
2022-12-25T23:00:27.759Z,7.40
2022-12-25T23:02:55.111Z,7.40
2022-12-25T23:05:23.246Z,7.20
2022-12-25T23:07:50.741Z,7.10
2022-12-25T23:10:19.262Z,7.10
2022-12-25T23:13:05.344Z,7.10
2022-12-25T23:15:33.032Z,7.10
2022-12-25T23:18:19.476Z,7.10
2022-12-25T23:21:05.111Z,7.00
2022-12-25T23:23:50.895Z,7.10
2022-12-25T23:26:20.865Z,7.00
2022-12-25T23:29:10.059Z,7.00
2022-12-25T23:31:41.423Z,6.90
2022-12-25T23:34:08.741Z,7.00
2022-12-25T23:36:36.037Z,6.90
2022-12-25T23:39:09.673Z,6.80
2022-12-25T23:41:40.392Z,6.80
2022-12-25T23:44:09.521Z,6.70
2022-12-25T23:46:37.365Z,6.70
2022-12-25T23:49:05.097Z,6.60
2022-12-25T23:51:32.410Z,6.50
2022-12-25T23:54:03.029Z,6.50
2022-12-25T23:56:29.979Z,6.50
2022-12-25T23:59:00.427Z,6.50
